createdAt,value
2023-04-10T00:00:57.431Z,13.10
2023-04-10T00:03:24.896Z,13.10
2023-04-10T00:05:54.473Z,13.00
2023-04-10T00:08:23.194Z,13.10
2023-04-10T00:10:50.446Z,13.10
2023-04-10T00:13:17.507Z,13.10
2023-04-10T00:15:44.154Z,13.10
2023-04-10T00:18:12.217Z,13.20
2023-04-10T00:20:38.848Z,13.10
2023-04-10T00:23:06.465Z,13.10
2023-04-10T00:25:33.136Z,13.10
2023-04-10T00:27:59.814Z,13.10
2023-04-10T00:30:26.647Z,13.40
2023-04-10T00:32:53.619Z,13.10
2023-04-10T00:35:20.604Z,13.10
2023-04-10T00:37:47.244Z,13.10
2023-04-10T00:40:13.958Z,13.10
2023-04-10T00:42:40.832Z,13.80
2023-04-10T00:45:08.981Z,13.00
2023-04-10T00:47:37.257Z,13.00
2023-04-10T00:50:05.355Z,13.00
2023-04-10T00:52:32.771Z,13.00
2023-04-10T00:54:59.519Z,13.00
2023-04-10T00:57:27.118Z,12.90
2023-04-10T00:59:54.040Z,13.10
2023-04-10T01:02:20.912Z,12.90
2023-04-10T01:04:48.412Z,12.90
2023-04-10T01:07:53.965Z,12.90
2023-04-10T01:10:26.610Z,12.90
2023-04-10T01:13:05.732Z,13.40
2023-04-10T01:15:42.443Z,12.80
2023-04-10T01:18:38.054Z,12.80
2023-04-10T01:21:09.161Z,12.80
2023-04-10T01:24:07.202Z,12.80
2023-04-10T01:27:03.780Z,12.80
2023-04-10T01:29:34.098Z,12.70
2023-04-10T01:32:04.905Z,12.60
2023-04-10T01:34:39.124Z,12.70
2023-04-10T01:37:12.056Z,12.80
2023-04-10T01:39:41.558Z,12.80
2023-04-10T01:42:11.098Z,12.70
2023-04-10T01:44:42.906Z,12.70
2023-04-10T01:47:09.728Z,12.70
2023-04-10T01:49:42.418Z,12.60
2023-04-10T01:52:11.100Z,12.60
2023-04-10T01:54:38.958Z,12.70
2023-04-10T01:57:06.377Z,12.70
2023-04-10T01:59:40.969Z,12.70
2023-04-10T02:02:08.511Z,12.60
2023-04-10T02:04:35.463Z,12.60
2023-04-10T02:07:19.921Z,12.70
2023-04-10T02:10:10.837Z,12.70
2023-04-10T02:12:44.669Z,12.80
2023-04-10T02:15:12.716Z,12.80
2023-04-10T02:17:40.480Z,12.70
2023-04-10T02:20:09.102Z,12.80
2023-04-10T02:22:36.938Z,12.80
2023-04-10T02:25:05.271Z,12.80
2023-04-10T02:27:33.433Z,12.80
2023-04-10T02:30:00.988Z,12.80
2023-04-10T02:32:27.857Z,12.80
2023-04-10T02:34:55.208Z,12.80
2023-04-10T02:37:22.115Z,12.90
2023-04-10T02:39:49.823Z,12.70
2023-04-10T02:42:16.739Z,12.70
2023-04-10T02:44:43.658Z,12.60
2023-04-10T02:47:10.989Z,12.70
2023-04-10T02:49:41.916Z,12.70
2023-04-10T02:52:13.135Z,12.70
2023-04-10T02:54:40.522Z,12.70
2023-04-10T02:57:07.220Z,12.70
2023-04-10T02:59:34.049Z,12.60
2023-04-10T03:02:03.008Z,12.70
2023-04-10T03:04:33.311Z,12.60
2023-04-10T03:07:00.193Z,12.60
2023-04-10T03:09:26.840Z,12.60
2023-04-10T03:11:54.225Z,12.70
2023-04-10T03:14:21.120Z,12.60
2023-04-10T03:16:47.953Z,12.60
2023-04-10T03:19:14.668Z,12.60
2023-04-10T03:21:41.430Z,12.50
2023-04-10T03:24:08.084Z,12.60
2023-04-10T03:26:34.834Z,12.60
2023-04-10T03:29:01.656Z,12.60
2023-04-10T03:31:28.780Z,12.50
2023-04-10T03:33:58.421Z,12.50
2023-04-10T03:36:25.613Z,12.50
2023-04-10T03:38:53.779Z,12.50
2023-04-10T03:41:22.616Z,12.50
2023-04-10T03:43:51.311Z,12.50
2023-04-10T03:46:18.149Z,12.50
2023-04-10T03:48:45.211Z,12.40
2023-04-10T03:51:12.376Z,12.40
2023-04-10T03:53:39.133Z,12.50
2023-04-10T03:56:10.525Z,12.40
2023-04-10T03:58:37.288Z,12.40
2023-04-10T04:01:05.265Z,12.40
2023-04-10T04:03:38.799Z,12.40
2023-04-10T04:06:23.822Z,12.40
2023-04-10T04:09:13.720Z,12.40
2023-04-10T04:11:56.493Z,12.20
2023-04-10T04:14:43.139Z,12.30
2023-04-10T04:17:23.467Z,12.20
2023-04-10T04:20:08.936Z,12.20
2023-04-10T04:22:47.727Z,12.30
2023-04-10T04:25:33.056Z,12.20
2023-04-10T04:28:09.679Z,12.20
2023-04-10T04:30:39.298Z,12.10
2023-04-10T04:33:22.047Z,12.20
2023-04-10T04:36:01.588Z,12.20
2023-04-10T04:38:40.199Z,12.20
2023-04-10T04:41:12.315Z,12.20
2023-04-10T04:44:19.504Z,12.20
2023-04-10T04:47:09.432Z,12.20
2023-04-10T04:49:55.356Z,12.20
2023-04-10T04:52:22.084Z,12.20
2023-04-10T04:55:17.905Z,12.10
2023-04-10T04:57:57.322Z,12.00
2023-04-10T05:00:52.141Z,12.00
2023-04-10T05:03:29.079Z,12.00
2023-04-10T05:06:14.361Z,12.00
2023-04-10T05:08:59.961Z,12.00
2023-04-10T05:11:42.172Z,11.90
2023-04-10T05:14:28.449Z,11.90
2023-04-10T05:17:09.257Z,11.90
2023-04-10T05:19:41.830Z,12.00
2023-04-10T05:22:28.669Z,12.00
2023-04-10T05:25:14.231Z,12.00
2023-04-10T05:27:58.895Z,11.90
2023-04-10T05:31:01.073Z,12.00
2023-04-10T05:33:46.236Z,12.10
2023-04-10T05:36:51.243Z,12.10
2023-04-10T05:39:22.475Z,12.10
2023-04-10T05:41:58.660Z,12.20
2023-04-10T05:44:45.547Z,12.20
2023-04-10T05:47:37.827Z,12.30
2023-04-10T05:50:23.265Z,12.30
2023-04-10T05:53:13.244Z,12.50
2023-04-10T05:56:18.452Z,12.40
2023-04-10T05:58:59.076Z,12.60
2023-04-10T06:01:45.691Z,12.60
2023-04-10T06:04:12.769Z,12.70
2023-04-10T06:06:40.891Z,12.80
2023-04-10T06:09:07.682Z,12.80
2023-04-10T06:11:34.428Z,12.90
2023-04-10T06:14:01.567Z,12.90
2023-04-10T06:16:35.400Z,13.00
2023-04-10T06:19:02.153Z,13.00
2023-04-10T06:21:29.934Z,13.90
2023-04-10T06:23:56.688Z,13.10
2023-04-10T06:26:25.945Z,13.20
2023-04-10T06:28:52.963Z,13.10
2023-04-10T06:31:23.882Z,13.20
2023-04-10T06:33:51.031Z,13.20
2023-04-10T06:36:17.950Z,13.30
2023-04-10T06:38:48.964Z,13.20
2023-04-10T06:41:15.801Z,13.40
2023-04-10T06:43:42.576Z,13.40
2023-04-10T06:46:09.333Z,13.40
2023-04-10T06:48:36.041Z,13.50
2023-04-10T06:51:02.862Z,14.30
2023-04-10T06:53:30.069Z,13.70
2023-04-10T06:55:57.410Z,13.70
2023-04-10T06:58:24.557Z,13.70
2023-04-10T07:00:51.519Z,14.10
2023-04-10T07:03:18.347Z,13.90
2023-04-10T07:05:45.393Z,14.00
2023-04-10T07:08:12.128Z,14.10
2023-04-10T07:10:38.822Z,14.20
2023-04-10T07:13:05.459Z,14.20
2023-04-10T07:15:32.097Z,14.40
2023-04-10T07:17:58.791Z,14.60
2023-04-10T07:20:25.726Z,14.50
2023-04-10T07:22:52.429Z,14.50
2023-04-10T07:25:19.197Z,14.60
2023-04-10T07:27:45.925Z,14.60
2023-04-10T07:30:13.700Z,14.80
2023-04-10T07:32:42.205Z,14.80
2023-04-10T07:35:09.691Z,14.80
2023-04-10T07:37:36.486Z,14.80
2023-04-10T07:40:03.580Z,14.90
2023-04-10T07:42:30.396Z,15.10
2023-04-10T07:44:57.356Z,15.60
2023-04-10T07:47:24.361Z,15.30
2023-04-10T07:49:51.319Z,15.40
2023-04-10T07:52:18.094Z,15.60
2023-04-10T07:54:44.821Z,15.80
2023-04-10T07:57:11.480Z,15.90
2023-04-10T07:59:38.187Z,16.10
2023-04-10T08:02:04.974Z,17.20
2023-04-10T08:04:31.813Z,16.40
2023-04-10T08:06:58.668Z,16.50
2023-04-10T08:09:25.509Z,16.70
2023-04-10T08:11:52.211Z,16.80
2023-04-10T08:14:18.880Z,16.40
2023-04-10T08:16:45.868Z,17.00
2023-04-10T08:19:12.730Z,16.10
2023-04-10T08:21:39.429Z,16.30
2023-04-10T08:24:06.321Z,16.10
2023-04-10T08:26:33.059Z,16.30
2023-04-10T08:29:00.809Z,16.30
2023-04-10T08:31:28.823Z,16.50
2023-04-10T08:33:56.406Z,15.80
2023-04-10T08:36:23.897Z,16.70
2023-04-10T08:38:50.801Z,16.80
2023-04-10T08:41:19.120Z,16.90
2023-04-10T08:43:46.437Z,17.00
2023-04-10T08:46:16.627Z,17.00
2023-04-10T08:48:56.728Z,16.90
2023-04-10T08:51:28.833Z,17.00
2023-04-10T08:54:03.342Z,16.90
2023-04-10T08:56:32.636Z,17.00
2023-04-10T08:59:01.274Z,16.70
2023-04-10T09:01:28.090Z,16.80
2023-04-10T09:03:55.519Z,17.60
2023-04-10T09:06:22.506Z,16.80
2023-04-10T09:08:49.207Z,17.60
2023-04-10T09:11:16.057Z,16.80
2023-04-10T09:13:44.939Z,16.80
2023-04-10T09:16:14.908Z,16.70
2023-04-10T09:18:49.853Z,16.70
2023-04-10T09:21:19.149Z,16.70
2023-04-10T09:23:47.207Z,16.70
2023-04-10T09:26:24.404Z,16.70
2023-04-10T09:28:57.054Z,16.60
2023-04-10T09:31:30.969Z,16.70
2023-04-10T09:34:22.274Z,16.70
2023-04-10T09:36:57.394Z,16.80
2023-04-10T09:39:42.848Z,17.80
2023-04-10T09:42:11.385Z,16.90
2023-04-10T09:44:39.548Z,16.90
2023-04-10T09:47:21.579Z,16.80
2023-04-10T09:49:56.571Z,16.90
2023-04-10T09:52:26.295Z,17.00
2023-04-10T09:54:54.417Z,16.90
2023-04-10T09:57:22.561Z,17.10
2023-04-10T09:59:51.718Z,17.30
2023-04-10T10:02:20.202Z,17.40
2023-04-10T10:04:48.527Z,17.60
2023-04-10T10:07:21.167Z,17.60
2023-04-10T10:09:52.646Z,17.70
2023-04-10T10:12:43.614Z,17.60
2023-04-10T10:15:46.848Z,17.80
2023-04-10T10:18:27.329Z,17.90
2023-04-10T10:20:54.851Z,18.00
2023-04-10T10:23:22.427Z,17.80
2023-04-10T10:25:51.212Z,18.00
2023-04-10T10:28:18.741Z,18.20
2023-04-10T10:30:47.078Z,18.30
2023-04-10T10:33:14.566Z,18.20
2023-04-10T10:35:42.151Z,18.20
2023-04-10T10:38:09.983Z,18.30
2023-04-10T10:40:48.302Z,18.40
2023-04-10T10:43:23.488Z,18.60
2023-04-10T10:46:07.165Z,18.60
2023-04-10T10:48:34.335Z,18.80
2023-04-10T10:51:02.685Z,19.40
2023-04-10T10:53:36.097Z,18.80
2023-04-10T10:56:23.960Z,18.90
2023-04-10T10:58:52.905Z,19.00
2023-04-10T11:01:21.746Z,19.00
2023-04-10T11:03:48.843Z,19.10
2023-04-10T11:06:19.207Z,19.10
2023-04-10T11:08:48.004Z,19.10
2023-04-10T11:11:17.806Z,19.30
2023-04-10T11:13:51.954Z,19.50
2023-04-10T11:16:20.897Z,19.60
2023-04-10T11:18:59.240Z,19.80
2023-04-10T11:21:29.536Z,19.90
2023-04-10T11:23:56.203Z,19.90
2023-04-10T11:26:43.240Z,20.40
2023-04-10T11:29:14.073Z,20.10
2023-04-10T11:31:40.848Z,20.20
2023-04-10T11:34:08.856Z,20.20
2023-04-10T11:36:39.042Z,20.30
2023-04-10T11:39:08.827Z,20.20
2023-04-10T11:41:37.311Z,20.10
2023-04-10T11:44:06.112Z,20.20
2023-04-10T11:46:37.074Z,20.20
2023-04-10T11:49:05.535Z,20.20
2023-04-10T11:51:33.239Z,20.20
2023-04-10T11:54:13.351Z,20.30
2023-04-10T11:57:03.208Z,20.40
2023-04-10T11:59:31.506Z,20.50
2023-04-10T12:02:09.805Z,20.70
2023-04-10T12:04:37.476Z,21.60
2023-04-10T12:07:04.499Z,21.00
2023-04-10T12:09:31.671Z,20.70
2023-04-10T12:12:03.401Z,21.10
2023-04-10T12:14:39.442Z,21.10
2023-04-10T12:17:11.093Z,21.00
2023-04-10T12:19:41.546Z,21.50
2023-04-10T12:22:11.953Z,21.00
2023-04-10T12:24:48.675Z,21.40
2023-04-10T12:27:26.590Z,20.90
2023-04-10T12:29:55.392Z,20.80
2023-04-10T12:32:22.474Z,20.60
2023-04-10T12:35:01.377Z,20.50
2023-04-10T12:37:50.316Z,20.40
2023-04-10T12:40:18.232Z,20.50
2023-04-10T12:42:44.958Z,20.30
2023-04-10T12:45:14.422Z,20.70
2023-04-10T12:47:46.924Z,20.30
2023-04-10T12:50:18.788Z,20.30
2023-04-10T12:53:01.069Z,20.30
2023-04-10T12:55:28.884Z,20.20
2023-04-10T12:57:56.930Z,20.00
2023-04-10T13:00:25.334Z,20.00
2023-04-10T13:02:52.278Z,19.80
2023-04-10T13:05:20.054Z,19.70
2023-04-10T13:07:46.964Z,19.50
2023-04-10T13:10:13.663Z,19.40
2023-04-10T13:12:42.072Z,19.40
2023-04-10T13:15:10.756Z,19.30
2023-04-10T13:17:37.589Z,19.30
2023-04-10T13:20:04.718Z,19.20
2023-04-10T13:22:31.376Z,19.30
2023-04-10T13:24:58.108Z,19.20
2023-04-10T13:27:24.776Z,19.10
2023-04-10T13:29:51.407Z,19.00
2023-04-10T13:32:18.116Z,19.00
2023-04-10T13:34:44.861Z,19.00
2023-04-10T13:37:13.128Z,19.20
2023-04-10T13:39:40.219Z,19.40
2023-04-10T13:42:06.920Z,19.20
2023-04-10T13:44:33.657Z,19.40
2023-04-10T13:47:00.511Z,19.20
2023-04-10T13:49:30.261Z,19.10
2023-04-10T13:51:57.528Z,19.10
2023-04-10T13:54:24.297Z,19.80
2023-04-10T13:56:51.155Z,18.80
2023-04-10T13:59:17.869Z,18.80
2023-04-10T14:01:44.627Z,18.70
2023-04-10T14:04:11.292Z,18.90
2023-04-10T14:06:37.969Z,18.80
2023-04-10T14:09:04.879Z,18.80
2023-04-10T14:11:31.521Z,18.80
2023-04-10T14:13:58.355Z,18.60
2023-04-10T14:16:25.090Z,18.80
2023-04-10T14:18:51.760Z,18.70
2023-04-10T14:21:20.493Z,18.70
2023-04-10T14:23:47.923Z,18.50
2023-04-10T14:26:14.651Z,18.40
2023-04-10T14:28:42.335Z,18.40
2023-04-10T14:31:09.241Z,18.20
2023-04-10T14:33:36.018Z,18.20
2023-04-10T14:36:02.878Z,17.90
2023-04-10T14:38:29.629Z,18.00
2023-04-10T14:40:56.347Z,17.80
2023-04-10T14:43:23.132Z,17.80
2023-04-10T14:45:49.974Z,17.60
2023-04-10T14:48:16.828Z,17.60
2023-04-10T14:50:43.625Z,17.60
2023-04-10T14:53:10.400Z,17.70
2023-04-10T14:55:37.328Z,18.30
2023-04-10T14:58:04.746Z,17.70
2023-04-10T15:00:32.671Z,17.70
2023-04-10T15:02:59.491Z,17.60
2023-04-10T15:05:27.547Z,17.60
2023-04-10T15:07:54.937Z,17.60
2023-04-10T15:10:21.884Z,18.10
2023-04-10T15:12:48.632Z,17.60
2023-04-10T15:15:15.501Z,17.50
2023-04-10T15:17:42.458Z,17.30
2023-04-10T15:20:09.889Z,17.40
2023-04-10T15:22:36.618Z,17.30
2023-04-10T15:25:03.498Z,17.10
2023-04-10T15:27:30.501Z,17.10
2023-04-10T15:29:57.347Z,17.00
2023-04-10T15:32:24.144Z,16.80
2023-04-10T15:34:50.865Z,16.90
2023-04-10T15:37:17.593Z,16.60
2023-04-10T15:39:44.329Z,16.70
2023-04-10T15:42:11.035Z,16.60
2023-04-10T15:44:37.758Z,16.40
2023-04-10T15:47:04.554Z,16.50
2023-04-10T15:49:38.038Z,16.50
2023-04-10T15:52:08.289Z,16.50
2023-04-10T15:54:35.233Z,16.40
2023-04-10T15:57:02.606Z,16.50
2023-04-10T15:59:29.773Z,16.40
2023-04-10T16:01:56.581Z,16.60
2023-04-10T16:04:24.044Z,16.50
2023-04-10T16:06:50.944Z,16.60
2023-04-10T16:11:47.800Z,16.60
2023-04-10T16:14:14.482Z,16.60
2023-04-10T16:16:41.218Z,16.60
2023-04-10T16:19:07.899Z,16.60
2023-04-10T16:21:34.593Z,16.50
2023-04-10T16:24:01.411Z,16.50
2023-04-10T16:26:28.191Z,16.50
2023-04-10T16:28:54.886Z,16.50
2023-04-10T16:31:21.779Z,16.40
2023-04-10T16:33:48.465Z,16.40
2023-04-10T16:36:15.437Z,16.20
2023-04-10T16:38:42.227Z,16.30
2023-04-10T16:41:09.972Z,16.20
2023-04-10T16:43:36.703Z,16.80
2023-04-10T16:46:03.596Z,16.00
2023-04-10T16:48:30.328Z,16.00
2023-04-10T16:51:04.599Z,15.90
2023-04-10T16:53:32.355Z,15.70
2023-04-10T16:56:01.539Z,15.90
2023-04-10T16:58:30.317Z,15.90
2023-04-10T17:00:57.052Z,15.80
2023-04-10T17:03:23.917Z,15.70
2023-04-10T17:05:51.208Z,16.60
2023-04-10T17:08:17.848Z,15.60
2023-04-10T17:10:44.528Z,15.60
2023-04-10T17:13:11.200Z,15.50
2023-04-10T17:15:38.446Z,15.40
2023-04-10T17:18:05.188Z,15.50
2023-04-10T17:20:36.766Z,15.70
2023-04-10T17:23:03.589Z,15.30
2023-04-10T17:25:30.666Z,15.40
2023-04-10T17:27:57.812Z,15.30
2023-04-10T17:30:24.530Z,15.40
2023-04-10T17:32:51.274Z,15.40
2023-04-10T17:35:17.985Z,15.40
2023-04-10T17:37:44.676Z,15.40
2023-04-10T17:40:11.833Z,15.40
2023-04-10T17:42:38.670Z,15.40
2023-04-10T17:45:05.964Z,15.30
2023-04-10T17:47:32.712Z,15.50
2023-04-10T17:49:59.436Z,15.40
2023-04-10T17:52:26.371Z,15.50
2023-04-10T17:54:53.079Z,15.50
2023-04-10T17:57:19.792Z,15.40
2023-04-10T17:59:46.477Z,15.30
2023-04-10T18:02:13.285Z,15.30
2023-04-10T18:04:40.098Z,15.20
2023-04-10T18:07:06.749Z,15.10
2023-04-10T18:09:33.473Z,15.20
2023-04-10T18:12:01.328Z,15.20
2023-04-10T18:14:28.064Z,15.20
2023-04-10T18:16:54.959Z,15.10
2023-04-10T18:19:21.740Z,15.50
2023-04-10T18:21:48.463Z,14.80
2023-04-10T18:24:15.660Z,15.10
2023-04-10T18:26:42.374Z,15.20
2023-04-10T18:29:09.091Z,15.20
2023-04-10T18:31:36.421Z,15.20
2023-04-10T18:34:07.891Z,15.20
2023-04-10T18:36:35.379Z,15.20
2023-04-10T18:39:02.105Z,15.10
2023-04-10T18:41:28.867Z,15.10
2023-04-10T18:44:04.405Z,15.10
2023-04-10T18:46:33.056Z,15.10
2023-04-10T18:49:01.273Z,15.10
2023-04-10T18:51:28.324Z,15.10
2023-04-10T18:53:55.581Z,15.00
2023-04-10T18:56:22.655Z,15.10
2023-04-10T18:58:50.301Z,15.10
2023-04-10T19:01:20.227Z,15.00
2023-04-10T19:03:52.562Z,15.00
2023-04-10T19:06:23.757Z,15.10
2023-04-10T19:08:51.302Z,15.00
2023-04-10T19:11:19.007Z,15.10
2023-04-10T19:13:45.727Z,15.10
2023-04-10T19:16:14.585Z,15.10
2023-04-10T19:18:41.596Z,15.10
2023-04-10T19:21:08.352Z,15.60
2023-04-10T19:23:35.259Z,15.10
2023-04-10T19:26:02.038Z,15.00
2023-04-10T19:28:29.274Z,15.10
2023-04-10T19:30:56.078Z,15.00
2023-04-10T19:33:22.905Z,15.00
2023-04-10T19:35:49.659Z,14.90
2023-04-10T19:38:16.432Z,15.00
2023-04-10T19:40:44.441Z,15.00
2023-04-10T19:43:11.516Z,15.00
2023-04-10T19:45:38.825Z,15.00
2023-04-10T19:48:07.957Z,15.00
2023-04-10T19:50:34.969Z,15.00
2023-04-10T19:53:01.710Z,15.50
2023-04-10T19:55:28.406Z,14.90
2023-04-10T19:57:55.216Z,14.80
2023-04-10T20:00:22.040Z,15.50
2023-04-10T20:02:48.858Z,14.80
2023-04-10T20:05:15.673Z,14.60
2023-04-10T20:07:42.543Z,15.60
2023-04-10T20:10:09.577Z,14.70
2023-04-10T20:12:36.319Z,14.70
2023-04-10T20:15:03.881Z,14.70
2023-04-10T20:17:31.192Z,14.70
2023-04-10T20:19:57.916Z,14.70
2023-04-10T20:22:25.237Z,14.80
2023-04-10T20:24:51.960Z,14.80
2023-04-10T20:27:18.768Z,14.80
2023-04-10T20:29:45.550Z,14.80
2023-04-10T20:32:12.239Z,14.80
2023-04-10T20:34:38.984Z,14.80
2023-04-10T20:37:05.813Z,14.90
2023-04-10T20:39:37.660Z,14.90
2023-04-10T20:42:06.266Z,14.80
2023-04-10T20:44:36.859Z,14.90
2023-04-10T20:47:07.838Z,14.80
2023-04-10T20:49:37.237Z,14.90
2023-04-10T20:52:05.063Z,14.90
2023-04-10T20:54:32.163Z,14.90
2023-04-10T20:57:00.143Z,14.80
2023-04-10T20:59:27.016Z,14.80
2023-04-10T21:01:53.718Z,14.70
2023-04-10T21:04:20.402Z,14.70
2023-04-10T21:06:47.071Z,14.70
2023-04-10T21:09:13.715Z,14.60
2023-04-10T21:11:40.961Z,14.50
2023-04-10T21:14:07.644Z,14.40
2023-04-10T21:16:37.318Z,14.40
2023-04-10T21:19:04.047Z,14.40
2023-04-10T21:21:31.071Z,14.50
2023-04-10T21:23:57.785Z,14.40
2023-04-10T21:26:24.490Z,14.40
2023-04-10T21:28:51.471Z,14.40
2023-04-10T21:31:18.262Z,14.50
2023-04-10T21:33:45.737Z,14.50
2023-04-10T21:36:12.471Z,14.40
2023-04-10T21:38:39.156Z,14.50
2023-04-10T21:41:06.207Z,14.50
2023-04-10T21:43:34.723Z,14.60
2023-04-10T21:46:02.965Z,14.60
2023-04-10T21:48:30.066Z,14.50
2023-04-10T21:50:56.760Z,14.60
2023-04-10T21:53:23.459Z,14.50
2023-04-10T21:55:50.220Z,14.50
2023-04-10T21:58:16.959Z,14.60
2023-04-10T22:00:46.942Z,14.60
2023-04-10T22:03:16.166Z,14.50
2023-04-10T22:05:43.494Z,14.50
2023-04-10T22:08:10.325Z,14.60
2023-04-10T22:10:37.978Z,14.50
2023-04-10T22:13:04.672Z,14.60
2023-04-10T22:15:31.384Z,14.50
2023-04-10T22:17:58.174Z,14.50
2023-04-10T22:20:24.804Z,14.50
2023-04-10T22:22:51.537Z,14.50
2023-04-10T22:25:19.301Z,15.20
2023-04-10T22:27:46.100Z,14.40
2023-04-10T22:30:13.068Z,14.30
2023-04-10T22:32:39.851Z,14.40
2023-04-10T22:35:07.573Z,14.40
2023-04-10T22:37:34.324Z,14.00
2023-04-10T22:40:01.030Z,13.70
2023-04-10T22:42:29.830Z,13.60
2023-04-10T22:44:58.066Z,13.40
2023-04-10T22:47:24.790Z,13.40
2023-04-10T22:49:51.709Z,13.40
2023-04-10T22:52:18.359Z,13.20
2023-04-10T22:54:45.059Z,13.20
2023-04-10T22:57:11.799Z,13.30
2023-04-10T22:59:38.660Z,13.20
2023-04-10T23:02:05.549Z,13.30
2023-04-10T23:04:32.437Z,13.30
2023-04-10T23:06:59.409Z,13.20
2023-04-10T23:09:26.082Z,13.00
2023-04-10T23:11:52.774Z,13.10
2023-04-10T23:14:19.896Z,13.10
2023-04-10T23:16:46.967Z,13.10
2023-04-10T23:19:13.700Z,13.00
2023-04-10T23:21:40.612Z,12.90
2023-04-10T23:24:07.353Z,12.80
2023-04-10T23:26:34.066Z,12.90
2023-04-10T23:29:01.075Z,12.90
2023-04-10T23:31:27.864Z,12.80
2023-04-10T23:33:54.620Z,12.80
2023-04-10T23:36:21.321Z,12.80
2023-04-10T23:38:48.070Z,12.90
2023-04-10T23:41:14.729Z,12.90
2023-04-10T23:43:41.416Z,12.90
2023-04-10T23:46:08.095Z,12.80
2023-04-10T23:48:36.981Z,12.90
2023-04-10T23:51:08.884Z,12.80
2023-04-10T23:53:35.737Z,12.70
2023-04-10T23:56:02.544Z,12.60
2023-04-10T23:58:29.253Z,13.00
